createdAt,value
2022-09-28T00:01:21.322Z,1.33
2022-09-28T00:03:51.704Z,0.90
2022-09-28T00:06:25.690Z,0.90
2022-09-28T00:08:55.584Z,0.90
2022-09-28T00:11:28.033Z,0.90
2022-09-28T00:14:05.917Z,0.90
2022-09-28T00:16:37.643Z,0.93
2022-09-28T00:19:06.934Z,0.80
2022-09-28T00:21:37.908Z,1.00
2022-09-28T00:24:18.844Z,0.80
2022-09-28T00:26:49.766Z,1.00
2022-09-28T00:29:26.870Z,0.80
2022-09-28T00:32:02.085Z,0.90
2022-09-28T00:34:49.189Z,0.80
2022-09-28T00:37:16.027Z,0.80
2022-09-28T00:39:43.875Z,0.67
2022-09-28T00:42:21.993Z,0.80
2022-09-28T00:45:11.900Z,0.67
2022-09-28T00:48:33.960Z,0.83
2022-09-28T00:51:07.792Z,0.70
2022-09-28T00:53:40.122Z,1.00
2022-09-28T00:56:29.156Z,0.70
2022-09-28T00:58:59.835Z,0.70
2022-09-28T01:01:28.246Z,0.70
2022-09-28T01:03:55.111Z,0.73
2022-09-28T01:06:27.440Z,1.10
2022-09-28T01:09:00.373Z,0.70
2022-09-28T01:11:27.878Z,0.70
2022-09-28T01:13:57.592Z,0.53
2022-09-28T01:16:30.458Z,0.60
2022-09-28T01:19:58.194Z,0.63
2022-09-28T01:23:17.331Z,0.60
2022-09-28T01:26:19.408Z,0.77
2022-09-28T01:29:10.607Z,0.60
2022-09-28T01:32:21.647Z,0.80
2022-09-28T01:35:04.104Z,0.90
2022-09-28T01:37:54.673Z,0.50
2022-09-28T01:40:26.364Z,0.73
2022-09-28T01:43:37.424Z,0.70
2022-09-28T01:46:39.282Z,0.83
2022-09-28T01:49:34.541Z,0.70
2022-09-28T01:52:30.430Z,1.20
2022-09-28T01:55:12.066Z,1.83
2022-09-28T01:57:56.922Z,0.77
2022-09-28T02:00:26.232Z,1.00
2022-09-28T02:03:21.893Z,1.20
2022-09-28T02:06:00.114Z,1.00
2022-09-28T02:08:44.334Z,0.80
2022-09-28T02:11:20.351Z,0.90
2022-09-28T02:14:15.349Z,0.70
2022-09-28T02:16:54.177Z,0.90
2022-09-28T02:19:29.010Z,0.87
2022-09-28T02:22:31.633Z,0.80
2022-09-28T02:25:09.862Z,0.87
2022-09-28T02:27:55.803Z,0.60
2022-09-28T02:30:22.942Z,0.80
2022-09-28T02:32:58.961Z,0.60
2022-09-28T02:35:25.822Z,0.53
2022-09-28T02:37:54.778Z,0.43
2022-09-28T02:40:29.207Z,0.47
2022-09-28T02:43:27.596Z,0.50
2022-09-28T02:46:29.626Z,0.50
2022-09-28T02:49:34.365Z,0.30
2022-09-28T02:52:19.139Z,0.40
2022-09-28T02:55:24.827Z,0.37
2022-09-28T02:58:33.380Z,0.40
2022-09-28T03:01:38.516Z,0.40
2022-09-28T03:04:45.089Z,0.50
2022-09-28T03:07:24.159Z,0.40
2022-09-28T03:10:02.834Z,0.30
2022-09-28T03:12:30.161Z,0.40
2022-09-28T03:15:26.215Z,0.30
2022-09-28T03:17:55.499Z,0.30
2022-09-28T03:20:22.278Z,0.40
2022-09-28T03:23:06.418Z,0.37
2022-09-28T03:25:35.796Z,0.40
2022-09-28T03:28:03.177Z,0.30
2022-09-28T03:30:29.936Z,0.30
2022-09-28T03:33:02.457Z,0.30
2022-09-28T03:35:29.289Z,0.30
2022-09-28T03:37:57.028Z,0.30
2022-09-28T03:40:24.203Z,0.47
2022-09-28T03:42:50.981Z,0.20
2022-09-28T03:45:17.755Z,0.57
2022-09-28T03:47:48.574Z,0.30
2022-09-28T03:50:16.336Z,0.20
2022-09-28T03:52:43.426Z,0.20
2022-09-28T03:55:11.229Z,0.30
2022-09-28T03:57:38.432Z,0.40
2022-09-28T04:00:07.781Z,0.37
2022-09-28T04:02:34.985Z,0.30
2022-09-28T04:05:02.353Z,0.30
2022-09-28T04:07:31.165Z,0.30
2022-09-28T04:09:58.913Z,0.30
2022-09-28T04:12:25.691Z,0.40
2022-09-28T04:14:52.439Z,0.30
2022-09-28T04:17:19.208Z,0.20
2022-09-28T04:19:48.689Z,0.30
2022-09-28T04:22:15.455Z,0.20
2022-09-28T04:24:43.483Z,0.30
2022-09-28T04:27:28.729Z,0.40
2022-09-28T04:29:55.468Z,0.30
2022-09-28T04:32:22.346Z,0.30
2022-09-28T04:34:51.617Z,0.33
2022-09-28T04:37:18.420Z,0.30
2022-09-28T04:39:48.419Z,0.37
2022-09-28T04:42:16.307Z,0.30
2022-09-28T04:44:43.024Z,0.40
2022-09-28T04:47:09.846Z,0.30
2022-09-28T04:49:38.261Z,0.30
2022-09-28T04:52:06.404Z,0.30
2022-09-28T04:54:33.298Z,0.30
2022-09-28T04:57:00.089Z,0.30
2022-09-28T04:59:27.069Z,0.27
2022-09-28T05:01:54.044Z,0.60
2022-09-28T05:04:25.642Z,0.30
2022-09-28T05:06:52.784Z,0.40
2022-09-28T05:09:19.518Z,0.40
2022-09-28T05:11:46.326Z,0.40
2022-09-28T05:14:13.217Z,0.53
2022-09-28T05:16:39.948Z,0.50
2022-09-28T05:19:08.178Z,0.70
2022-09-28T05:21:34.905Z,0.50
2022-09-28T05:24:07.186Z,0.50
2022-09-28T05:26:34.640Z,0.50
2022-09-28T05:29:01.353Z,0.60
2022-09-28T05:31:28.202Z,0.40
2022-09-28T05:33:55.303Z,0.50
2022-09-28T05:36:22.273Z,0.50
2022-09-28T05:38:49.025Z,0.50
2022-09-28T05:41:15.880Z,0.50
2022-09-28T05:43:44.125Z,0.70
2022-09-28T05:46:11.041Z,0.50
2022-09-28T05:48:39.893Z,0.50
2022-09-28T05:51:12.758Z,0.53
2022-09-28T05:53:39.685Z,0.40
2022-09-28T05:56:06.634Z,0.50
2022-09-28T05:58:33.331Z,0.53
2022-09-28T06:01:00.143Z,0.70
2022-09-28T06:03:27.268Z,0.40
2022-09-28T06:05:54.313Z,0.50
2022-09-28T06:08:21.726Z,0.70
2022-09-28T06:10:48.421Z,0.70
2022-09-28T06:13:15.168Z,1.10
2022-09-28T06:15:43.590Z,1.80
2022-09-28T06:18:16.564Z,1.40
2022-09-28T06:20:47.676Z,0.73
2022-09-28T06:23:14.793Z,1.33
2022-09-28T06:25:41.837Z,1.23
2022-09-28T06:28:15.681Z,0.73
2022-09-28T06:30:44.992Z,0.60
2022-09-28T06:33:14.177Z,0.90
2022-09-28T06:35:42.612Z,0.80
2022-09-28T06:38:10.479Z,0.80
2022-09-28T06:40:37.809Z,0.90
2022-09-28T06:43:11.358Z,0.90
2022-09-28T06:45:38.995Z,0.70
2022-09-28T06:48:10.353Z,0.70
2022-09-28T06:50:40.903Z,0.87
2022-09-28T06:53:12.026Z,0.60
2022-09-28T06:55:46.576Z,0.70
2022-09-28T06:58:17.460Z,0.70
2022-09-28T07:00:44.412Z,0.80
2022-09-28T07:03:15.109Z,0.70
2022-09-28T07:05:45.772Z,0.80
2022-09-28T07:08:13.350Z,0.60
2022-09-28T07:10:45.654Z,0.80
2022-09-28T07:13:38.497Z,0.70
2022-09-28T07:16:01.825Z,0.73
2022-09-28T07:18:29.924Z,0.73
2022-09-28T07:20:57.601Z,0.70
2022-09-28T07:23:27.441Z,0.80
2022-09-28T07:25:54.683Z,0.70
2022-09-28T07:28:22.240Z,0.70
2022-09-28T07:30:51.519Z,0.70
2022-09-28T07:33:18.457Z,0.73
2022-09-28T07:35:53.831Z,0.73
2022-09-28T07:38:20.690Z,0.70
2022-09-28T07:41:06.465Z,0.70
2022-09-28T07:43:33.363Z,0.70
2022-09-28T07:46:02.259Z,0.73
2022-09-28T07:48:29.548Z,0.80
2022-09-28T07:50:57.274Z,0.70
2022-09-28T07:53:25.652Z,0.60
2022-09-28T07:56:01.951Z,0.80
2022-09-28T07:58:29.244Z,0.70
2022-09-28T08:00:56.165Z,0.87
2022-09-28T08:03:22.932Z,0.60
2022-09-28T08:05:49.755Z,0.70
2022-09-28T08:08:16.615Z,1.07
2022-09-28T08:10:46.871Z,0.90
2022-09-28T08:13:15.023Z,0.73
2022-09-28T08:15:42.423Z,0.53
2022-09-28T08:18:09.748Z,0.60
2022-09-28T08:20:55.373Z,0.60
2022-09-28T08:23:23.234Z,0.52
2022-09-28T08:25:54.714Z,0.40
2022-09-28T08:28:23.931Z,0.30
2022-09-28T08:30:51.692Z,0.38
2022-09-28T08:33:21.459Z,1.05
2022-09-28T08:35:57.403Z,0.22
2022-09-28T08:38:26.627Z,0.30
2022-09-28T08:41:05.227Z,0.28
2022-09-28T08:43:59.699Z,0.20
2022-09-28T08:46:40.019Z,0.30
2022-09-28T08:49:36.884Z,0.20
2022-09-28T08:52:23.414Z,0.10
2022-09-28T08:55:10.938Z,0.20
2022-09-28T08:58:06.634Z,0.10
2022-09-28T09:00:42.470Z,0.10
2022-09-28T09:03:22.492Z,0.10
2022-09-28T09:06:40.561Z,0.17
2022-09-28T09:09:47.811Z,0.20
2022-09-28T09:12:33.597Z,0.20
2022-09-28T09:15:34.263Z,0.17
2022-09-28T09:18:29.392Z,0.17
2022-09-28T09:21:28.533Z,0.10
2022-09-28T09:24:06.744Z,0.22
2022-09-28T09:26:40.174Z,1.00
2022-09-28T09:29:32.884Z,0.10
2022-09-28T09:32:26.860Z,0.20
2022-09-28T09:35:09.580Z,0.10
2022-09-28T09:38:07.722Z,0.10
2022-09-28T09:41:08.236Z,0.20
2022-09-28T09:44:32.757Z,0.10
2022-09-28T09:47:20.027Z,0.05
2022-09-28T09:50:08.313Z,0.10
2022-09-28T09:52:55.934Z,0.10
2022-09-28T09:55:41.833Z,0.10
2022-09-28T09:58:22.235Z,0.40
2022-09-28T10:00:55.649Z,0.20
2022-09-28T10:03:31.348Z,0.20
2022-09-28T10:06:09.392Z,0.20
2022-09-28T10:08:52.085Z,0.20
2022-09-28T10:11:29.360Z,0.20
2022-09-28T10:13:56.849Z,0.20
2022-09-28T10:16:24.472Z,0.20
2022-09-28T10:18:51.213Z,0.30
2022-09-28T10:21:23.033Z,0.20
2022-09-28T10:24:00.329Z,0.20
2022-09-28T10:26:40.404Z,0.32
2022-09-28T10:29:20.544Z,0.20
2022-09-28T10:31:54.342Z,0.30
2022-09-28T10:34:30.291Z,0.10
2022-09-28T10:37:03.981Z,0.30
2022-09-28T10:39:55.146Z,0.20
2022-09-28T10:42:25.596Z,0.20
2022-09-28T10:45:15.344Z,0.20
2022-09-28T10:47:44.573Z,0.20
2022-09-28T10:50:25.891Z,0.25
2022-09-28T10:52:52.728Z,0.20
2022-09-28T10:55:33.201Z,0.25
2022-09-28T10:58:00.921Z,0.20
2022-09-28T11:00:43.053Z,0.30
2022-09-28T11:03:27.257Z,0.28
2022-09-28T11:06:07.843Z,0.15
2022-09-28T11:08:39.144Z,0.30
2022-09-28T11:11:12.897Z,0.10
2022-09-28T11:14:01.249Z,0.20
2022-09-28T11:16:36.365Z,0.30
2022-09-28T11:19:32.016Z,0.20
2022-09-28T11:21:58.770Z,0.70
2022-09-28T11:24:27.133Z,0.60
2022-09-28T11:27:00.070Z,0.50
2022-09-28T11:29:46.832Z,2.10
2022-09-28T11:32:16.025Z,0.85
2022-09-28T11:34:59.063Z,0.70
2022-09-28T11:38:01.524Z,0.50
2022-09-28T11:41:16.244Z,0.30
2022-09-28T11:44:07.575Z,0.30
2022-09-28T11:47:32.790Z,0.40
2022-09-28T11:50:24.344Z,0.40
2022-09-28T11:53:16.680Z,0.40
2022-09-28T11:56:08.886Z,0.30
2022-09-28T11:58:44.914Z,0.40
2022-09-28T12:01:30.931Z,0.20
2022-09-28T12:04:36.485Z,0.40
2022-09-28T12:07:23.141Z,0.50
2022-09-28T12:10:28.112Z,0.30
2022-09-28T12:13:28.735Z,0.30
2022-09-28T12:16:45.159Z,0.50
2022-09-28T12:19:19.075Z,0.40
2022-09-28T12:21:59.511Z,0.30
2022-09-28T12:24:59.019Z,0.40
2022-09-28T12:28:05.464Z,0.30
2022-09-28T12:30:40.369Z,0.30
2022-09-28T12:33:13.079Z,0.30
2022-09-28T12:36:28.416Z,0.30
2022-09-28T12:39:27.112Z,0.40
2022-09-28T12:42:13.468Z,0.98
2022-09-28T12:45:08.693Z,0.50
2022-09-28T12:47:53.961Z,0.32
2022-09-28T12:50:39.062Z,0.75
2022-09-28T12:53:58.556Z,0.38
2022-09-28T12:56:54.291Z,0.20
2022-09-28T12:59:56.464Z,0.40
2022-09-28T13:03:20.430Z,0.40
2022-09-28T13:06:19.550Z,0.35
2022-09-28T13:09:22.473Z,0.30
2022-09-28T13:12:03.126Z,0.32
2022-09-28T13:15:18.521Z,0.35
2022-09-28T13:18:13.629Z,0.30
2022-09-28T13:21:11.454Z,0.20
2022-09-28T13:23:43.917Z,0.28
2022-09-28T13:26:26.813Z,0.28
2022-09-28T13:29:02.031Z,0.22
2022-09-28T13:31:34.969Z,0.30
2022-09-28T13:34:06.129Z,0.20
2022-09-28T13:36:32.798Z,0.30
2022-09-28T13:39:01.203Z,0.30
2022-09-28T13:41:40.473Z,0.70
2022-09-28T13:44:13.354Z,4.28
2022-09-28T13:47:03.392Z,1.23
2022-09-28T13:49:56.820Z,0.85
2022-09-28T13:52:45.524Z,0.43
2022-09-28T13:55:56.373Z,1.30
2022-09-28T13:58:31.180Z,0.70
2022-09-28T14:01:31.004Z,0.50
2022-09-28T14:04:22.732Z,0.40
2022-09-28T14:07:23.816Z,0.40
2022-09-28T14:10:48.781Z,0.30
2022-09-28T14:13:41.911Z,0.35
2022-09-28T14:16:26.715Z,0.20
2022-09-28T14:19:33.307Z,0.28
2022-09-28T14:22:25.096Z,0.30
2022-09-28T14:25:23.555Z,1.48
2022-09-28T14:28:27.881Z,0.77
2022-09-28T14:30:58.060Z,0.40
2022-09-28T14:33:29.952Z,0.30
2022-09-28T14:36:08.353Z,0.40
2022-09-28T14:39:08.385Z,0.30
2022-09-28T14:41:41.771Z,0.32
2022-09-28T14:44:16.397Z,0.30
2022-09-28T14:46:48.433Z,0.30
2022-09-28T14:49:19.372Z,0.40
2022-09-28T14:51:57.915Z,0.30
2022-09-28T14:54:30.111Z,0.40
2022-09-28T14:57:15.283Z,0.40
2022-09-28T14:59:46.077Z,0.52
2022-09-28T15:02:15.699Z,0.40
2022-09-28T15:04:51.514Z,16.38
2022-09-28T15:07:27.129Z,3.22
2022-09-28T15:09:59.539Z,1.00
2022-09-28T15:12:30.464Z,0.40
2022-09-28T15:15:19.284Z,0.70
2022-09-28T15:18:02.154Z,9.13
2022-09-28T15:20:49.735Z,7.32
2022-09-28T15:23:41.328Z,2.40
2022-09-28T15:26:27.590Z,1.50
2022-09-28T15:28:55.796Z,1.30
2022-09-28T15:31:30.304Z,1.75
2022-09-28T15:34:15.654Z,2.63
2022-09-28T15:36:48.047Z,0.40
2022-09-28T15:39:46.208Z,0.40
2022-09-28T15:42:13.466Z,0.60
2022-09-28T15:44:43.905Z,0.55
2022-09-28T15:47:28.427Z,0.20
2022-09-28T15:49:58.499Z,0.20
2022-09-28T15:53:04.306Z,0.30
2022-09-28T15:55:39.034Z,0.30
2022-09-28T15:58:20.290Z,0.10
2022-09-28T16:00:51.231Z,0.40
2022-09-28T16:03:22.018Z,0.20
2022-09-28T16:05:58.130Z,0.25
2022-09-28T16:08:31.524Z,0.30
2022-09-28T16:11:12.269Z,0.20
2022-09-28T16:13:57.820Z,0.20
2022-09-28T16:16:31.267Z,0.20
2022-09-28T16:19:01.009Z,1.17
2022-09-28T16:21:45.321Z,0.60
2022-09-28T16:24:36.045Z,22.45
2022-09-28T16:27:21.924Z,17.58
2022-09-28T16:30:24.792Z,14.70
2022-09-28T16:33:26.035Z,15.95
2022-09-28T16:35:53.244Z,13.40
2022-09-28T16:38:20.620Z,13.27
2022-09-28T16:40:54.523Z,6.10
2022-09-28T16:43:30.945Z,3.20
2022-09-28T16:46:04.355Z,3.53
2022-09-28T16:48:36.040Z,1.08
2022-09-28T16:51:03.140Z,1.05
2022-09-28T16:53:48.272Z,0.75
2022-09-28T16:56:15.065Z,0.50
2022-09-28T16:58:42.462Z,10.02
2022-09-28T17:01:12.335Z,8.75
2022-09-28T17:03:46.889Z,4.80
2022-09-28T17:06:15.160Z,2.13
2022-09-28T17:08:44.936Z,9.15
2022-09-28T17:11:22.759Z,2.85
2022-09-28T17:13:59.759Z,1.10
2022-09-28T17:16:59.940Z,1.00
2022-09-28T17:19:25.773Z,0.80
2022-09-28T17:21:57.768Z,0.70
2022-09-28T17:24:24.468Z,0.57
2022-09-28T17:26:55.716Z,1.92
2022-09-28T17:29:23.615Z,1.63
2022-09-28T17:31:50.359Z,1.80
2022-09-28T17:34:20.819Z,1.20
2022-09-28T17:36:47.855Z,1.27
2022-09-28T17:39:18.600Z,4.18
2022-09-28T17:41:46.095Z,2.20
2022-09-28T17:44:15.863Z,14.48
2022-09-28T17:46:47.384Z,11.13
2022-09-28T17:49:14.988Z,7.22
2022-09-28T17:51:41.864Z,5.93
2022-09-28T17:54:09.040Z,3.83
2022-09-28T17:56:36.849Z,2.80
2022-09-28T17:59:07.919Z,1.60
2022-09-28T18:01:39.833Z,1.00
2022-09-28T18:04:19.082Z,0.70
2022-09-28T18:06:54.800Z,1.83
2022-09-28T18:09:25.212Z,1.27
2022-09-28T18:12:00.864Z,0.88
2022-09-28T18:14:28.475Z,1.08
2022-09-28T18:16:55.253Z,0.80
2022-09-28T18:19:23.308Z,0.80
2022-09-28T18:21:50.143Z,1.50
2022-09-28T18:24:18.278Z,1.60
2022-09-28T18:26:45.233Z,1.70
2022-09-28T18:29:12.012Z,2.17
2022-09-28T18:31:38.729Z,2.05
2022-09-28T18:34:08.437Z,1.90
2022-09-28T18:36:35.772Z,1.70
2022-09-28T18:39:04.083Z,1.50
2022-09-28T18:41:30.903Z,1.35
2022-09-28T18:44:01.079Z,1.30
2022-09-28T18:46:36.471Z,1.10
2022-09-28T18:49:06.760Z,0.80
2022-09-28T18:51:33.568Z,1.08
2022-09-28T18:54:07.445Z,1.08
2022-09-28T18:56:37.228Z,0.82
2022-09-28T18:59:09.954Z,1.60
2022-09-28T19:01:42.076Z,1.00
2022-09-28T19:04:11.310Z,1.10
2022-09-28T19:06:41.196Z,1.20
2022-09-28T19:09:08.902Z,1.35
2022-09-28T19:11:35.726Z,1.52
2022-09-28T19:14:03.587Z,1.30
2022-09-28T19:16:33.999Z,1.40
2022-09-28T19:19:03.041Z,1.83
2022-09-28T19:21:32.088Z,1.40
2022-09-28T19:24:03.949Z,1.58
2022-09-28T19:26:31.542Z,1.48
2022-09-28T19:28:59.674Z,1.27
2022-09-28T19:31:27.278Z,1.10
2022-09-28T19:33:53.992Z,1.08
2022-09-28T19:36:24.674Z,1.33
2022-09-28T19:38:53.178Z,1.25
2022-09-28T19:41:43.120Z,1.00
2022-09-28T19:44:23.077Z,1.10
2022-09-28T19:46:52.576Z,1.10
2022-09-28T19:49:20.825Z,1.13
2022-09-28T19:52:11.977Z,1.10
2022-09-28T19:54:38.730Z,1.10
2022-09-28T19:57:08.485Z,1.10
2022-09-28T19:59:37.146Z,1.10
2022-09-28T20:02:07.268Z,1.25
2022-09-28T20:04:34.382Z,1.10
2022-09-28T20:07:02.047Z,1.00
2022-09-28T20:09:29.237Z,1.10
2022-09-28T20:11:56.010Z,1.55
2022-09-28T20:14:24.600Z,1.83
2022-09-28T20:16:58.298Z,1.60
2022-09-28T20:19:26.162Z,1.40
2022-09-28T20:21:53.135Z,1.63
2022-09-28T20:24:19.921Z,1.48
2022-09-28T20:26:46.816Z,1.90
2022-09-28T20:29:13.909Z,1.40
2022-09-28T20:31:42.537Z,1.50
2022-09-28T20:34:11.903Z,1.92
2022-09-28T20:36:41.240Z,1.67
2022-09-28T20:39:10.191Z,1.40
2022-09-28T20:41:36.982Z,1.73
2022-09-28T20:44:06.724Z,1.70
2022-09-28T20:46:38.418Z,1.73
2022-09-28T20:49:07.603Z,1.60
2022-09-28T20:51:34.559Z,1.90
2022-09-28T20:54:01.408Z,1.90
2022-09-28T20:56:38.629Z,1.90
2022-09-28T20:59:10.931Z,1.50
2022-09-28T21:01:38.371Z,1.63
2022-09-28T21:04:08.536Z,1.90
2022-09-28T21:06:39.185Z,1.63
2022-09-28T21:09:12.979Z,1.93
2022-09-28T21:11:40.195Z,2.10
2022-09-28T21:14:10.108Z,2.07
2022-09-28T21:16:43.051Z,2.00
2022-09-28T21:19:09.729Z,2.07
2022-09-28T21:21:36.552Z,2.30
2022-09-28T21:24:04.391Z,1.57
2022-09-28T21:26:31.828Z,1.77
2022-09-28T21:29:05.717Z,2.00
2022-09-28T21:31:52.758Z,1.90
2022-09-28T21:34:21.659Z,2.03
2022-09-28T21:36:55.568Z,1.93
2022-09-28T21:39:22.506Z,2.23
2022-09-28T21:41:49.249Z,2.37
2022-09-28T21:44:15.957Z,2.17
2022-09-28T21:46:42.951Z,2.47
2022-09-28T21:49:12.581Z,2.07
2022-09-28T21:51:39.439Z,2.20
2022-09-28T21:54:06.588Z,2.30
2022-09-28T21:56:34.311Z,2.23
2022-09-28T21:59:01.247Z,2.03
2022-09-28T22:01:29.052Z,1.73
2022-09-28T22:03:58.010Z,1.87
2022-09-28T22:06:29.877Z,2.50
2022-09-28T22:08:57.270Z,2.60
2022-09-28T22:11:27.958Z,1.80
2022-09-28T22:13:58.391Z,1.90
2022-09-28T22:16:30.267Z,2.07
2022-09-28T22:18:59.189Z,1.87
2022-09-28T22:21:33.631Z,2.07
2022-09-28T22:24:04.655Z,2.10
2022-09-28T22:26:37.318Z,1.80
2022-09-28T22:29:08.101Z,2.50
2022-09-28T22:31:39.694Z,2.03
2022-09-28T22:34:07.703Z,2.13
2022-09-28T22:36:35.856Z,2.03
2022-09-28T22:39:03.098Z,1.87
2022-09-28T22:41:29.925Z,2.30
2022-09-28T22:43:58.933Z,2.30
2022-09-28T22:46:29.324Z,2.17
2022-09-28T22:48:58.831Z,2.03
2022-09-28T22:51:30.090Z,2.30
2022-09-28T22:53:58.028Z,2.10
2022-09-28T22:56:28.788Z,2.27
2022-09-28T22:58:55.644Z,2.30
2022-09-28T23:01:29.315Z,2.20
2022-09-28T23:03:57.767Z,1.90
2022-09-28T23:06:26.900Z,2.10
2022-09-28T23:08:53.986Z,2.10
2022-09-28T23:11:21.134Z,2.20
2022-09-28T23:13:56.992Z,2.07
2022-09-28T23:16:26.512Z,2.07
2022-09-28T23:18:56.136Z,2.60
2022-09-28T23:21:27.143Z,1.93
2022-09-28T23:24:01.475Z,2.00
2022-09-28T23:26:34.489Z,2.33
2022-09-28T23:29:01.260Z,2.20
2022-09-28T23:31:31.577Z,2.10
2022-09-28T23:34:06.547Z,3.27
2022-09-28T23:36:34.966Z,2.53
2022-09-28T23:39:02.145Z,2.07
2022-09-28T23:41:29.205Z,2.03
2022-09-28T23:43:55.980Z,2.30
2022-09-28T23:46:23.123Z,2.10
2022-09-28T23:48:50.212Z,2.53
2022-09-28T23:51:22.246Z,2.00
2022-09-28T23:53:49.012Z,2.30
2022-09-28T23:56:15.827Z,2.23
2022-09-28T23:58:42.793Z,2.17
